sensor_id;sensor_type;location;lat;lon;timestamp;P1;durP1;ratioP1;P2;durP2;ratioP2
1460;SDS011;724;49.910;12.530;2024-03-08T00:01:36;16.65;;;15.85;;
1460;SDS011;724;49.910;12.530;2024-03-08T00:04:02;16.58;;;15.77;;
1460;SDS011;724;49.910;12.530;2024-03-08T00:06:30;16.80;;;15.95;;
1460;SDS011;724;49.910;12.530;2024-03-08T00:08:58;17.17;;;16.27;;
1460;SDS011;724;49.910;12.530;2024-03-08T00:11:25;17.20;;;16.30;;
1460;SDS011;724;49.910;12.530;2024-03-08T00:13:52;17.52;;;16.63;;
1460;SDS011;724;49.910;12.530;2024-03-08T00:16:18;17.63;;;16.73;;
1460;SDS011;724;49.910;12.530;2024-03-08T00:18:45;17.30;;;16.40;;
1460;SDS011;724;49.910;12.530;2024-03-08T00:21:12;17.10;;;16.20;;
1460;SDS011;724;49.910;12.530;2024-03-08T00:23:40;17.15;;;16.25;;
1460;SDS011;724;49.910;12.530;2024-03-08T00:26:08;17.55;;;16.65;;
1460;SDS011;724;49.910;12.530;2024-03-08T00:28:35;17.25;;;16.35;;
1460;SDS011;724;49.910;12.530;2024-03-08T00:31:02;17.30;;;16.40;;
1460;SDS011;724;49.910;12.530;2024-03-08T00:33:29;17.13;;;16.23;;
1460;SDS011;724;49.910;12.530;2024-03-08T00:35:56;17.45;;;16.55;;
1460;SDS011;724;49.910;12.530;2024-03-08T00:38:23;17.40;;;16.50;;
1460;SDS011;724;49.910;12.530;2024-03-08T00:40:50;17.60;;;16.70;;
1460;SDS011;724;49.910;12.530;2024-03-08T00:43:18;17.17;;;16.27;;
1460;SDS011;724;49.910;12.530;2024-03-08T00:45:44;17.27;;;16.38;;
1460;SDS011;724;49.910;12.530;2024-03-08T00:48:11;17.25;;;16.35;;
1460;SDS011;724;49.910;12.530;2024-03-08T00:50:39;17.42;;;16.52;;
1460;SDS011;724;49.910;12.530;2024-03-08T00:53:05;17.10;;;16.20;;
1460;SDS011;724;49.910;12.530;2024-03-08T00:55:32;16.60;;;15.80;;
1460;SDS011;724;49.910;12.530;2024-03-08T00:57:59;17.20;;;16.30;;
1460;SDS011;724;49.910;12.530;2024-03-08T01:00:28;16.50;;;15.70;;
1460;SDS011;724;49.910;12.530;2024-03-08T01:02:55;17.10;;;16.20;;
1460;SDS011;724;49.910;12.530;2024-03-08T01:05:21;17.38;;;16.48;;
1460;SDS011;724;49.910;12.530;2024-03-08T01:07:49;17.50;;;16.60;;
1460;SDS011;724;49.910;12.530;2024-03-08T01:10:16;17.00;;;16.10;;
1460;SDS011;724;49.910;12.530;2024-03-08T01:12:43;16.17;;;15.38;;
1460;SDS011;724;49.910;12.530;2024-03-08T01:15:10;17.27;;;16.38;;
1460;SDS011;724;49.910;12.530;2024-03-08T01:17:38;17.70;;;16.80;;
1460;SDS011;724;49.910;12.530;2024-03-08T01:20:05;16.50;;;15.70;;
1460;SDS011;724;49.910;12.530;2024-03-08T01:22:35;16.60;;;15.80;;
1460;SDS011;724;49.910;12.530;2024-03-08T01:25:02;17.10;;;16.20;;
1460;SDS011;724;49.910;12.530;2024-03-08T01:27:30;17.60;;;16.70;;
1460;SDS011;724;49.910;12.530;2024-03-08T01:29:57;17.52;;;16.63;;
1460;SDS011;724;49.910;12.530;2024-03-08T01:32:24;17.30;;;16.40;;
1460;SDS011;724;49.910;12.530;2024-03-08T01:34:52;16.35;;;15.55;;
1460;SDS011;724;49.910;12.530;2024-03-08T01:37:19;16.35;;;15.55;;
1460;SDS011;724;49.910;12.530;2024-03-08T01:39:46;16.50;;;15.70;;
1460;SDS011;724;49.910;12.530;2024-03-08T01:42:13;16.75;;;15.93;;
1460;SDS011;724;49.910;12.530;2024-03-08T01:44:42;17.30;;;16.40;;
1460;SDS011;724;49.910;12.530;2024-03-08T01:47:09;16.70;;;15.90;;
1460;SDS011;724;49.910;12.530;2024-03-08T01:49:37;16.50;;;15.70;;
1460;SDS011;724;49.910;12.530;2024-03-08T01:52:05;16.65;;;15.85;;
1460;SDS011;724;49.910;12.530;2024-03-08T01:54:32;17.00;;;16.10;;
1460;SDS011;724;49.910;12.530;2024-03-08T01:57:00;16.60;;;15.80;;
1460;SDS011;724;49.910;12.530;2024-03-08T01:59:27;16.55;;;15.75;;
1460;SDS011;724;49.910;12.530;2024-03-08T02:01:54;17.27;;;16.38;;
1460;SDS011;724;49.910;12.530;2024-03-08T02:04:26;17.20;;;16.30;;
1460;SDS011;724;49.910;12.530;2024-03-08T02:06:55;17.75;;;16.85;;
1460;SDS011;724;49.910;12.530;2024-03-08T02:09:24;17.33;;;16.42;;
1460;SDS011;724;49.910;12.530;2024-03-08T02:11:51;16.73;;;15.90;;
1460;SDS011;724;49.910;12.530;2024-03-08T02:14:19;17.15;;;16.25;;
1460;SDS011;724;49.910;12.530;2024-03-08T02:16:46;17.40;;;16.50;;
1460;SDS011;724;49.910;12.530;2024-03-08T02:19:13;17.05;;;16.15;;
1460;SDS011;724;49.910;12.530;2024-03-08T02:21:41;17.40;;;16.50;;
1460;SDS011;724;49.910;12.530;2024-03-08T02:24:08;17.15;;;16.25;;
1460;SDS011;724;49.910;12.530;2024-03-08T02:26:35;17.70;;;16.80;;
1460;SDS011;724;49.910;12.530;2024-03-08T02:29:02;16.75;;;15.93;;
1460;SDS011;724;49.910;12.530;2024-03-08T02:31:30;16.60;;;15.80;;
1460;SDS011;724;49.910;12.530;2024-03-08T02:33:58;17.30;;;16.40;;
1460;SDS011;724;49.910;12.530;2024-03-08T02:36:25;16.67;;;15.88;;
1460;SDS011;724;49.910;12.530;2024-03-08T02:38:53;16.55;;;15.75;;
1460;SDS011;724;49.910;12.530;2024-03-08T02:41:20;16.27;;;15.48;;
1460;SDS011;724;49.910;12.530;2024-03-08T02:43:47;16.63;;;15.82;;
1460;SDS011;724;49.910;12.530;2024-03-08T02:46:15;15.60;;;14.80;;
1460;SDS011;724;49.910;12.530;2024-03-08T02:48:42;16.10;;;15.30;;
1460;SDS011;724;49.910;12.530;2024-03-08T02:51:09;15.90;;;15.10;;
1460;SDS011;724;49.910;12.530;2024-03-08T02:53:36;16.45;;;15.65;;
1460;SDS011;724;49.910;12.530;2024-03-08T02:56:04;16.42;;;15.63;;
1460;SDS011;724;49.910;12.530;2024-03-08T02:58:33;15.50;;;14.70;;
1460;SDS011;724;49.910;12.530;2024-03-08T03:01:00;15.25;;;14.45;;
1460;SDS011;724;49.910;12.530;2024-03-08T03:03:27;15.50;;;14.70;;
1460;SDS011;724;49.910;12.530;2024-03-08T03:05:54;15.73;;;14.93;;
1460;SDS011;724;49.910;12.530;2024-03-08T03:08:21;15.95;;;15.15;;
1460;SDS011;724;49.910;12.530;2024-03-08T03:10:48;15.50;;;14.70;;
1460;SDS011;724;49.910;12.530;2024-03-08T03:13:17;15.60;;;14.80;;
1460;SDS011;724;49.910;12.530;2024-03-08T03:15:45;15.55;;;14.75;;
1460;SDS011;724;49.910;12.530;2024-03-08T03:18:12;16.30;;;15.50;;
1460;SDS011;724;49.910;12.530;2024-03-08T03:20:40;16.02;;;15.23;;
1460;SDS011;724;49.910;12.530;2024-03-08T03:23:07;16.20;;;15.40;;
1460;SDS011;724;49.910;12.530;2024-03-08T03:25:34;16.30;;;15.50;;
1460;SDS011;724;49.910;12.530;2024-03-08T03:28:00;16.67;;;15.88;;
1460;SDS011;724;49.910;12.530;2024-03-08T03:30:28;16.40;;;15.60;;
1460;SDS011;724;49.910;12.530;2024-03-08T03:32:58;15.70;;;14.90;;
1460;SDS011;724;49.910;12.530;2024-03-08T03:35:25;16.30;;;15.50;;
1460;SDS011;724;49.910;12.530;2024-03-08T03:37:52;16.30;;;15.50;;
1460;SDS011;724;49.910;12.530;2024-03-08T03:40:30;16.40;;;15.60;;
1460;SDS011;724;49.910;12.530;2024-03-08T03:42:57;16.17;;;15.38;;
1460;SDS011;724;49.910;12.530;2024-03-08T03:45:24;16.33;;;15.52;;
1460;SDS011;724;49.910;12.530;2024-03-08T03:47:52;16.63;;;15.82;;
1460;SDS011;724;49.910;12.530;2024-03-08T03:50:19;16.30;;;15.50;;
1460;SDS011;724;49.910;12.530;2024-03-08T03:52:47;16.33;;;15.52;;
1460;SDS011;724;49.910;12.530;2024-03-08T03:55:14;16.30;;;15.50;;
1460;SDS011;724;49.910;12.530;2024-03-08T03:57:41;16.33;;;15.52;;
1460;SDS011;724;49.910;12.530;2024-03-08T04:00:10;15.90;;;15.10;;
1460;SDS011;724;49.910;12.530;2024-03-08T04:02:38;16.42;;;15.63;;
1460;SDS011;724;49.910;12.530;2024-03-08T04:05:08;16.20;;;15.40;;
1460;SDS011;724;49.910;12.530;2024-03-08T04:07:35;16.25;;;15.45;;
1460;SDS011;724;49.910;12.530;2024-03-08T04:10:03;16.25;;;15.45;;
1460;SDS011;724;49.910;12.530;2024-03-08T04:12:32;16.45;;;15.65;;
1460;SDS011;724;49.910;12.530;2024-03-08T04:14:59;15.73;;;14.93;;
1460;SDS011;724;49.910;12.530;2024-03-08T04:17:25;16.30;;;15.50;;
1460;SDS011;724;49.910;12.530;2024-03-08T04:19:52;16.20;;;15.40;;
1460;SDS011;724;49.910;12.530;2024-03-08T04:22:21;16.52;;;15.73;;
1460;SDS011;724;49.910;12.530;2024-03-08T04:24:47;16.25;;;15.45;;
1460;SDS011;724;49.910;12.530;2024-03-08T04:27:14;16.00;;;15.20;;
1460;SDS011;724;49.910;12.530;2024-03-08T04:29:41;16.50;;;15.70;;
1460;SDS011;724;49.910;12.530;2024-03-08T04:32:08;16.10;;;15.30;;
1460;SDS011;724;49.910;12.530;2024-03-08T04:34:36;14.90;;;14.10;;
1460;SDS011;724;49.910;12.530;2024-03-08T04:37:03;15.75;;;14.95;;
1460;SDS011;724;49.910;12.530;2024-03-08T04:39:31;15.75;;;14.95;;
1460;SDS011;724;49.910;12.530;2024-03-08T04:41:59;15.30;;;14.50;;
1460;SDS011;724;49.910;12.530;2024-03-08T04:44:29;15.88;;;15.07;;
1460;SDS011;724;49.910;12.530;2024-03-08T04:46:56;15.82;;;15.02;;
1460;SDS011;724;49.910;12.530;2024-03-08T04:49:24;16.08;;;15.27;;
1460;SDS011;724;49.910;12.530;2024-03-08T04:51:52;16.00;;;15.20;;
1460;SDS011;724;49.910;12.530;2024-03-08T04:54:19;15.70;;;14.90;;
1460;SDS011;724;49.910;12.530;2024-03-08T04:56:47;15.18;;;14.38;;
1460;SDS011;724;49.910;12.530;2024-03-08T04:59:14;15.98;;;15.18;;
1460;SDS011;724;49.910;12.530;2024-03-08T05:01:41;15.98;;;15.18;;
1460;SDS011;724;49.910;12.530;2024-03-08T05:04:08;16.10;;;15.30;;
1460;SDS011;724;49.910;12.530;2024-03-08T05:06:35;15.82;;;15.02;;
1460;SDS011;724;49.910;12.530;2024-03-08T05:09:01;15.85;;;15.05;;
1460;SDS011;724;49.910;12.530;2024-03-08T05:11:38;16.02;;;15.23;;
1460;SDS011;724;49.910;12.530;2024-03-08T05:14:06;15.40;;;14.60;;
1460;SDS011;724;49.910;12.530;2024-03-08T05:16:33;15.00;;;14.20;;
1460;SDS011;724;49.910;12.530;2024-03-08T05:19:00;15.02;;;14.23;;
1460;SDS011;724;49.910;12.530;2024-03-08T05:21:27;15.40;;;14.60;;
1460;SDS011;724;49.910;12.530;2024-03-08T05:23:54;14.95;;;14.15;;
1460;SDS011;724;49.910;12.530;2024-03-08T05:26:21;15.40;;;14.60;;
1460;SDS011;724;49.910;12.530;2024-03-08T05:28:48;15.48;;;14.68;;
1460;SDS011;724;49.910;12.530;2024-03-08T05:31:19;15.10;;;14.30;;
1460;SDS011;724;49.910;12.530;2024-03-08T05:33:47;14.82;;;14.02;;
1460;SDS011;724;49.910;12.530;2024-03-08T05:36:14;15.07;;;14.27;;
1460;SDS011;724;49.910;12.530;2024-03-08T05:38:41;15.40;;;14.60;;
1460;SDS011;724;49.910;12.530;2024-03-08T05:41:08;14.90;;;14.10;;
1460;SDS011;724;49.910;12.530;2024-03-08T05:43:35;14.95;;;14.15;;
1460;SDS011;724;49.910;12.530;2024-03-08T05:46:02;15.25;;;14.45;;
1460;SDS011;724;49.910;12.530;2024-03-08T05:48:30;15.40;;;14.60;;
1460;SDS011;724;49.910;12.530;2024-03-08T05:50:58;15.27;;;14.48;;
1460;SDS011;724;49.910;12.530;2024-03-08T05:53:26;15.60;;;14.80;;
1460;SDS011;724;49.910;12.530;2024-03-08T05:55:56;15.40;;;14.60;;
1460;SDS011;724;49.910;12.530;2024-03-08T05:58:23;15.45;;;14.65;;
1460;SDS011;724;49.910;12.530;2024-03-08T06:00:50;15.25;;;14.45;;
1460;SDS011;724;49.910;12.530;2024-03-08T06:03:17;15.20;;;14.40;;
1460;SDS011;724;49.910;12.530;2024-03-08T06:05:47;15.60;;;14.80;;
1460;SDS011;724;49.910;12.530;2024-03-08T06:08:14;14.70;;;13.95;;
1460;SDS011;724;49.910;12.530;2024-03-08T06:10:41;14.68;;;13.93;;
1460;SDS011;724;49.910;12.530;2024-03-08T06:13:08;15.40;;;14.60;;
1460;SDS011;724;49.910;12.530;2024-03-08T06:15:37;15.20;;;14.40;;
1460;SDS011;724;49.910;12.530;2024-03-08T06:18:04;15.60;;;14.80;;
1460;SDS011;724;49.910;12.530;2024-03-08T06:20:31;15.60;;;14.80;;
1460;SDS011;724;49.910;12.530;2024-03-08T06:22:59;15.50;;;14.70;;
1460;SDS011;724;49.910;12.530;2024-03-08T06:25:26;15.90;;;15.10;;
1460;SDS011;724;49.910;12.530;2024-03-08T06:27:53;15.85;;;15.05;;
1460;SDS011;724;49.910;12.530;2024-03-08T06:30:19;15.75;;;14.95;;
1460;SDS011;724;49.910;12.530;2024-03-08T06:32:47;16.40;;;15.60;;
1460;SDS011;724;49.910;12.530;2024-03-08T06:35:14;16.00;;;15.20;;
1460;SDS011;724;49.910;12.530;2024-03-08T06:37:41;15.57;;;14.77;;
1460;SDS011;724;49.910;12.530;2024-03-08T06:40:11;15.25;;;14.45;;
1460;SDS011;724;49.910;12.530;2024-03-08T06:42:39;15.40;;;14.60;;
1460;SDS011;724;49.910;12.530;2024-03-08T06:45:06;15.57;;;14.77;;
1460;SDS011;724;49.910;12.530;2024-03-08T06:47:35;15.23;;;14.43;;
1460;SDS011;724;49.910;12.530;2024-03-08T06:50:02;15.60;;;14.80;;
1460;SDS011;724;49.910;12.530;2024-03-08T06:52:30;15.23;;;14.43;;
1460;SDS011;724;49.910;12.530;2024-03-08T06:54:57;15.23;;;14.43;;
1460;SDS011;724;49.910;12.530;2024-03-08T06:57:28;16.17;;;15.38;;
1460;SDS011;724;49.910;12.530;2024-03-08T06:59:54;15.20;;;14.40;;
1460;SDS011;724;49.910;12.530;2024-03-08T07:02:22;15.50;;;14.70;;
1460;SDS011;724;49.910;12.530;2024-03-08T07:04:49;15.30;;;14.50;;
1460;SDS011;724;49.910;12.530;2024-03-08T07:07:16;15.20;;;14.40;;
1460;SDS011;724;49.910;12.530;2024-03-08T07:09:45;15.40;;;14.60;;
1460;SDS011;724;49.910;12.530;2024-03-08T07:12:14;15.35;;;14.55;;
1460;SDS011;724;49.910;12.530;2024-03-08T07:14:41;15.50;;;14.70;;
1460;SDS011;724;49.910;12.530;2024-03-08T07:17:10;15.68;;;14.88;;
1460;SDS011;724;49.910;12.530;2024-03-08T07:19:37;15.70;;;14.90;;
1460;SDS011;724;49.910;12.530;2024-03-08T07:22:04;15.60;;;14.80;;
1460;SDS011;724;49.910;12.530;2024-03-08T07:24:33;15.40;;;14.60;;
1460;SDS011;724;49.910;12.530;2024-03-08T07:27:15;15.50;;;14.70;;
1460;SDS011;724;49.910;12.530;2024-03-08T07:29:43;15.80;;;15.00;;
1460;SDS011;724;49.910;12.530;2024-03-08T07:32:10;15.52;;;14.73;;
1460;SDS011;724;49.910;12.530;2024-03-08T07:34:44;16.15;;;15.35;;
1460;SDS011;724;49.910;12.530;2024-03-08T07:37:10;15.90;;;15.10;;
1460;SDS011;724;49.910;12.530;2024-03-08T07:39:37;15.90;;;15.10;;
1460;SDS011;724;49.910;12.530;2024-03-08T07:42:04;15.80;;;15.00;;
1460;SDS011;724;49.910;12.530;2024-03-08T07:44:31;15.95;;;15.15;;
1460;SDS011;724;49.910;12.530;2024-03-08T07:46:59;16.30;;;15.50;;
1460;SDS011;724;49.910;12.530;2024-03-08T07:49:26;16.10;;;15.30;;
1460;SDS011;724;49.910;12.530;2024-03-08T07:51:53;15.80;;;15.00;;
1460;SDS011;724;49.910;12.530;2024-03-08T07:54:19;15.90;;;15.10;;
1460;SDS011;724;49.910;12.530;2024-03-08T07:56:46;15.45;;;14.65;;
1460;SDS011;724;49.910;12.530;2024-03-08T07:59:13;15.07;;;14.27;;
1460;SDS011;724;49.910;12.530;2024-03-08T08:01:40;15.80;;;15.00;;
1460;SDS011;724;49.910;12.530;2024-03-08T08:04:08;15.65;;;14.85;;
1460;SDS011;724;49.910;12.530;2024-03-08T08:06:38;15.40;;;14.60;;
1460;SDS011;724;49.910;12.530;2024-03-08T08:09:06;15.95;;;15.15;;
1460;SDS011;724;49.910;12.530;2024-03-08T08:11:39;15.60;;;14.80;;
1460;SDS011;724;49.910;12.530;2024-03-08T08:14:06;15.90;;;15.10;;
1460;SDS011;724;49.910;12.530;2024-03-08T08:16:34;15.60;;;14.80;;
1460;SDS011;724;49.910;12.530;2024-03-08T08:19:01;15.23;;;14.43;;
1460;SDS011;724;49.910;12.530;2024-03-08T08:21:33;15.25;;;14.45;;
1460;SDS011;724;49.910;12.530;2024-03-08T08:24:01;15.95;;;15.15;;
1460;SDS011;724;49.910;12.530;2024-03-08T08:26:29;16.00;;;15.20;;
1460;SDS011;724;49.910;12.530;2024-03-08T08:28:56;15.90;;;15.10;;
1460;SDS011;724;49.910;12.530;2024-03-08T08:31:22;15.88;;;15.07;;
1460;SDS011;724;49.910;12.530;2024-03-08T08:33:49;16.05;;;15.25;;
1460;SDS011;724;49.910;12.530;2024-03-08T08:36:19;15.80;;;15.00;;
1460;SDS011;724;49.910;12.530;2024-03-08T08:38:47;16.00;;;15.20;;
1460;SDS011;724;49.910;12.530;2024-03-08T08:41:13;16.25;;;15.45;;
1460;SDS011;724;49.910;12.530;2024-03-08T08:43:42;16.00;;;15.20;;
1460;SDS011;724;49.910;12.530;2024-03-08T08:46:09;15.82;;;15.02;;
1460;SDS011;724;49.910;12.530;2024-03-08T08:48:38;15.30;;;14.50;;
1460;SDS011;724;49.910;12.530;2024-03-08T08:51:06;16.65;;;15.85;;
1460;SDS011;724;49.910;12.530;2024-03-08T08:53:37;15.30;;;14.50;;
1460;SDS011;724;49.910;12.530;2024-03-08T08:56:07;15.60;;;14.80;;
1460;SDS011;724;49.910;12.530;2024-03-08T08:58:34;15.60;;;14.80;;
1460;SDS011;724;49.910;12.530;2024-03-08T09:01:00;15.55;;;14.75;;
1460;SDS011;724;49.910;12.530;2024-03-08T09:03:27;15.35;;;14.55;;
1460;SDS011;724;49.910;12.530;2024-03-08T09:05:54;16.00;;;15.20;;
1460;SDS011;724;49.910;12.530;2024-03-08T09:08:21;16.00;;;15.20;;
1460;SDS011;724;49.910;12.530;2024-03-08T09:10:49;15.60;;;14.80;;
1460;SDS011;724;49.910;12.530;2024-03-08T09:13:18;16.17;;;15.38;;
1460;SDS011;724;49.910;12.530;2024-03-08T09:15:44;16.15;;;15.35;;
1460;SDS011;724;49.910;12.530;2024-03-08T09:18:11;15.98;;;15.18;;
1460;SDS011;724;49.910;12.530;2024-03-08T09:20:38;16.00;;;15.20;;
1460;SDS011;724;49.910;12.530;2024-03-08T09:23:06;15.90;;;15.10;;
1460;SDS011;724;49.910;12.530;2024-03-08T09:25:33;15.80;;;15.00;;
1460;SDS011;724;49.910;12.530;2024-03-08T09:28:00;16.00;;;15.20;;
1460;SDS011;724;49.910;12.530;2024-03-08T09:30:28;15.95;;;15.15;;
1460;SDS011;724;49.910;12.530;2024-03-08T09:32:55;16.10;;;15.30;;
1460;SDS011;724;49.910;12.530;2024-03-08T09:35:22;16.48;;;15.68;;
1460;SDS011;724;49.910;12.530;2024-03-08T09:37:48;17.00;;;16.10;;
1460;SDS011;724;49.910;12.530;2024-03-08T09:40:16;17.20;;;16.30;;
1460;SDS011;724;49.910;12.530;2024-03-08T09:42:44;16.80;;;15.95;;
1460;SDS011;724;49.910;12.530;2024-03-08T09:45:12;16.95;;;16.05;;
1460;SDS011;724;49.910;12.530;2024-03-08T09:47:42;16.45;;;15.65;;
1460;SDS011;724;49.910;12.530;2024-03-08T09:50:10;16.60;;;15.80;;
1460;SDS011;724;49.910;12.530;2024-03-08T09:52:37;16.40;;;15.60;;
1460;SDS011;724;49.910;12.530;2024-03-08T09:55:05;16.40;;;15.60;;
1460;SDS011;724;49.910;12.530;2024-03-08T09:57:32;16.50;;;15.70;;
1460;SDS011;724;49.910;12.530;2024-03-08T09:59:59;16.10;;;15.30;;
1460;SDS011;724;49.910;12.530;2024-03-08T10:02:26;16.10;;;15.30;;
1460;SDS011;724;49.910;12.530;2024-03-08T10:04:55;16.52;;;15.73;;
1460;SDS011;724;49.910;12.530;2024-03-08T10:07:23;16.30;;;15.50;;
1460;SDS011;724;49.910;12.530;2024-03-08T10:09:51;16.60;;;15.80;;
1460;SDS011;724;49.910;12.530;2024-03-08T10:12:18;16.30;;;15.50;;
1460;SDS011;724;49.910;12.530;2024-03-08T10:14:46;16.90;;;16.00;;
1460;SDS011;724;49.910;12.530;2024-03-08T10:17:13;17.10;;;16.20;;
1460;SDS011;724;49.910;12.530;2024-03-08T10:19:41;17.90;;;17.00;;
1460;SDS011;724;49.910;12.530;2024-03-08T10:22:17;17.40;;;16.50;;
1460;SDS011;724;49.910;12.530;2024-03-08T10:24:44;17.05;;;16.15;;
1460;SDS011;724;49.910;12.530;2024-03-08T10:27:11;17.50;;;16.60;;
1460;SDS011;724;49.910;12.530;2024-03-08T10:29:38;17.88;;;16.98;;
1460;SDS011;724;49.910;12.530;2024-03-08T10:32:09;17.60;;;16.70;;
1460;SDS011;724;49.910;12.530;2024-03-08T10:34:37;17.40;;;16.50;;
1460;SDS011;724;49.910;12.530;2024-03-08T10:37:04;17.88;;;16.98;;
1460;SDS011;724;49.910;12.530;2024-03-08T10:39:33;17.35;;;16.45;;
1460;SDS011;724;49.910;12.530;2024-03-08T10:42:02;17.05;;;16.15;;
1460;SDS011;724;49.910;12.530;2024-03-08T10:44:39;17.40;;;16.50;;
1460;SDS011;724;49.910;12.530;2024-03-08T10:47:17;17.58;;;16.67;;
1460;SDS011;724;49.910;12.530;2024-03-08T10:49:50;17.30;;;16.40;;
1460;SDS011;724;49.910;12.530;2024-03-08T10:52:20;17.27;;;16.38;;
1460;SDS011;724;49.910;12.530;2024-03-08T10:54:49;17.80;;;16.90;;
1460;SDS011;724;49.910;12.530;2024-03-08T10:57:19;18.00;;;17.10;;
1460;SDS011;724;49.910;12.530;2024-03-08T10:59:47;18.20;;;17.30;;
1460;SDS011;724;49.910;12.530;2024-03-08T11:02:14;17.40;;;16.50;;
1460;SDS011;724;49.910;12.530;2024-03-08T11:04:46;17.23;;;16.33;;
1460;SDS011;724;49.910;12.530;2024-03-08T11:07:14;16.55;;;15.75;;
1460;SDS011;724;49.910;12.530;2024-03-08T11:09:44;17.30;;;16.40;;
1460;SDS011;724;49.910;12.530;2024-03-08T11:12:22;17.50;;;16.60;;
1460;SDS011;724;49.910;12.530;2024-03-08T11:14:55;17.40;;;16.50;;
1460;SDS011;724;49.910;12.530;2024-03-08T11:17:27;16.95;;;16.05;;
1460;SDS011;724;49.910;12.530;2024-03-08T11:20:10;16.70;;;15.90;;
1460;SDS011;724;49.910;12.530;2024-03-08T11:22:49;17.27;;;16.38;;
1460;SDS011;724;49.910;12.530;2024-03-08T11:25:30;16.70;;;15.90;;
1460;SDS011;724;49.910;12.530;2024-03-08T11:28:10;17.10;;;16.20;;
1460;SDS011;724;49.910;12.530;2024-03-08T11:30:41;17.20;;;16.30;;
1460;SDS011;724;49.910;12.530;2024-03-08T11:33:15;17.40;;;16.50;;
1460;SDS011;724;49.910;12.530;2024-03-08T11:35:43;17.10;;;16.20;;
1460;SDS011;724;49.910;12.530;2024-03-08T11:38:11;17.55;;;16.65;;
1460;SDS011;724;49.910;12.530;2024-03-08T11:40:39;16.90;;;16.00;;
1460;SDS011;724;49.910;12.530;2024-03-08T11:43:07;16.30;;;15.50;;
1460;SDS011;724;49.910;12.530;2024-03-08T11:45:35;16.55;;;15.75;;
1460;SDS011;724;49.910;12.530;2024-03-08T11:48:02;16.40;;;15.60;;
1460;SDS011;724;49.910;12.530;2024-03-08T11:50:30;16.70;;;15.90;;
1460;SDS011;724;49.910;12.530;2024-03-08T11:53:01;16.20;;;15.40;;
1460;SDS011;724;49.910;12.530;2024-03-08T11:55:29;16.30;;;15.50;;
1460;SDS011;724;49.910;12.530;2024-03-08T11:58:00;16.20;;;15.40;;
1460;SDS011;724;49.910;12.530;2024-03-08T12:00:33;15.60;;;14.80;;
1460;SDS011;724;49.910;12.530;2024-03-08T12:03:05;15.75;;;14.95;;
1460;SDS011;724;49.910;12.530;2024-03-08T12:05:32;16.30;;;15.50;;
1460;SDS011;724;49.910;12.530;2024-03-08T12:08:00;16.30;;;15.50;;
1460;SDS011;724;49.910;12.530;2024-03-08T12:10:30;15.80;;;15.00;;
1460;SDS011;724;49.910;12.530;2024-03-08T12:12:57;15.80;;;15.00;;
1460;SDS011;724;49.910;12.530;2024-03-08T12:15:25;16.42;;;15.63;;
1460;SDS011;724;49.910;12.530;2024-03-08T12:17:53;16.70;;;15.90;;
1460;SDS011;724;49.910;12.530;2024-03-08T12:20:23;16.20;;;15.40;;
1460;SDS011;724;49.910;12.530;2024-03-08T12:22:52;15.80;;;15.00;;
1460;SDS011;724;49.910;12.530;2024-03-08T12:25:21;16.20;;;15.40;;
1460;SDS011;724;49.910;12.530;2024-03-08T12:27:48;16.20;;;15.40;;
1460;SDS011;724;49.910;12.530;2024-03-08T12:30:18;15.90;;;15.10;;
1460;SDS011;724;49.910;12.530;2024-03-08T12:32:48;15.80;;;15.00;;
1460;SDS011;724;49.910;12.530;2024-03-08T12:35:20;16.20;;;15.40;;
1460;SDS011;724;49.910;12.530;2024-03-08T12:37:50;15.93;;;15.13;;
1460;SDS011;724;49.910;12.530;2024-03-08T12:40:18;16.65;;;15.85;;
1460;SDS011;724;49.910;12.530;2024-03-08T12:42:51;16.30;;;15.50;;
1460;SDS011;724;49.910;12.530;2024-03-08T12:45:18;16.63;;;15.82;;
1460;SDS011;724;49.910;12.530;2024-03-08T12:47:47;16.70;;;15.90;;
1460;SDS011;724;49.910;12.530;2024-03-08T12:50:17;16.70;;;15.90;;
1460;SDS011;724;49.910;12.530;2024-03-08T12:52:45;16.60;;;15.80;;
1460;SDS011;724;49.910;12.530;2024-03-08T12:55:13;16.95;;;16.05;;
1460;SDS011;724;49.910;12.530;2024-03-08T12:57:43;17.02;;;16.13;;
1460;SDS011;724;49.910;12.530;2024-03-08T13:00:12;17.00;;;16.10;;
1460;SDS011;724;49.910;12.530;2024-03-08T13:02:44;16.23;;;15.43;;
1460;SDS011;724;49.910;12.530;2024-03-08T13:05:10;16.70;;;15.90;;
1460;SDS011;724;49.910;12.530;2024-03-08T13:07:39;16.75;;;15.93;;
1460;SDS011;724;49.910;12.530;2024-03-08T13:10:06;16.60;;;15.80;;
1460;SDS011;724;49.910;12.530;2024-03-08T13:12:35;16.70;;;15.90;;
1460;SDS011;724;49.910;12.530;2024-03-08T13:15:03;16.90;;;16.00;;
1460;SDS011;724;49.910;12.530;2024-03-08T13:17:30;16.80;;;15.95;;
1460;SDS011;724;49.910;12.530;2024-03-08T13:19:57;16.60;;;15.80;;
1460;SDS011;724;49.910;12.530;2024-03-08T13:22:24;16.65;;;15.85;;
1460;SDS011;724;49.910;12.530;2024-03-08T13:24:52;17.17;;;16.27;;
1460;SDS011;724;49.910;12.530;2024-03-08T13:27:19;17.10;;;16.20;;
1460;SDS011;724;49.910;12.530;2024-03-08T13:29:48;17.10;;;16.20;;
1460;SDS011;724;49.910;12.530;2024-03-08T13:32:15;17.00;;;16.10;;
1460;SDS011;724;49.910;12.530;2024-03-08T13:34:42;16.67;;;15.88;;
1460;SDS011;724;49.910;12.530;2024-03-08T13:37:10;16.60;;;15.80;;
1460;SDS011;724;49.910;12.530;2024-03-08T13:39:36;17.10;;;16.20;;
1460;SDS011;724;49.910;12.530;2024-03-08T13:42:08;16.90;;;16.00;;
1460;SDS011;724;49.910;12.530;2024-03-08T13:44:37;17.10;;;16.20;;
1460;SDS011;724;49.910;12.530;2024-03-08T13:47:07;16.80;;;15.95;;
1460;SDS011;724;49.910;12.530;2024-03-08T13:49:36;16.30;;;15.50;;
1460;SDS011;724;49.910;12.530;2024-03-08T13:52:03;16.90;;;16.00;;
1460;SDS011;724;49.910;12.530;2024-03-08T13:54:33;16.70;;;15.90;;
1460;SDS011;724;49.910;12.530;2024-03-08T13:57:00;16.70;;;15.90;;
1460;SDS011;724;49.910;12.530;2024-03-08T13:59:28;17.40;;;16.50;;
1460;SDS011;724;49.910;12.530;2024-03-08T14:01:55;17.20;;;16.30;;
1460;SDS011;724;49.910;12.530;2024-03-08T14:04:25;17.40;;;16.50;;
1460;SDS011;724;49.910;12.530;2024-03-08T14:06:53;17.20;;;16.30;;
1460;SDS011;724;49.910;12.530;2024-03-08T14:09:22;17.27;;;16.38;;
1460;SDS011;724;49.910;12.530;2024-03-08T14:11:50;16.90;;;16.00;;
1460;SDS011;724;49.910;12.530;2024-03-08T14:14:19;16.92;;;16.02;;
1460;SDS011;724;49.910;12.530;2024-03-08T14:16:48;17.20;;;16.30;;
1460;SDS011;724;49.910;12.530;2024-03-08T14:19:17;16.90;;;16.00;;
1460;SDS011;724;49.910;12.530;2024-03-08T14:21:46;16.50;;;15.70;;
1460;SDS011;724;49.910;12.530;2024-03-08T14:24:13;16.10;;;15.30;;
1460;SDS011;724;49.910;12.530;2024-03-08T14:26:41;16.50;;;15.70;;
1460;SDS011;724;49.910;12.530;2024-03-08T14:29:08;16.27;;;15.48;;
1460;SDS011;724;49.910;12.530;2024-03-08T14:31:35;16.17;;;15.38;;
1460;SDS011;724;49.910;12.530;2024-03-08T14:34:03;16.25;;;15.45;;
1460;SDS011;724;49.910;12.530;2024-03-08T14:36:29;16.10;;;15.30;;
1460;SDS011;724;49.910;12.530;2024-03-08T14:38:58;16.40;;;15.60;;
1460;SDS011;724;49.910;12.530;2024-03-08T14:41:25;16.65;;;15.85;;
1460;SDS011;724;49.910;12.530;2024-03-08T14:43:52;16.42;;;15.63;;
1460;SDS011;724;49.910;12.530;2024-03-08T14:46:19;16.02;;;15.23;;
1460;SDS011;724;49.910;12.530;2024-03-08T14:48:48;16.80;;;15.95;;
1460;SDS011;724;49.910;12.530;2024-03-08T14:51:16;16.27;;;15.48;;
1460;SDS011;724;49.910;12.530;2024-03-08T14:53:46;16.08;;;15.27;;